createdAt,value
2019-04-16T00:00:25.321Z,99.90
2019-04-16T00:02:56.988Z,99.90
2019-04-16T00:05:48.544Z,99.90
2019-04-16T00:08:28.226Z,99.90
2019-04-16T00:11:05.630Z,99.90
2019-04-16T00:13:40.091Z,99.90
2019-04-16T00:16:13.022Z,99.90
2019-04-16T00:18:56.336Z,99.90
2019-04-16T00:21:34.201Z,99.90
2019-04-16T00:24:18.276Z,99.90
2019-04-16T00:26:49.665Z,99.90
2019-04-16T00:29:20.386Z,99.90
2019-04-16T00:32:15.662Z,99.90
2019-04-16T00:34:46.141Z,99.90
2019-04-16T00:37:20.466Z,99.90
2019-04-16T00:39:49.036Z,99.90
2019-04-16T00:42:19.958Z,99.90
2019-04-16T00:44:50.379Z,99.90
2019-04-16T00:47:20.888Z,99.90
2019-04-16T00:49:51.331Z,99.90
2019-04-16T00:52:22.136Z,99.90
2019-04-16T00:54:52.603Z,99.90
2019-04-16T00:57:23.034Z,99.90
2019-04-16T00:59:56.299Z,99.90
2019-04-16T01:02:25.905Z,99.90
2019-04-16T01:04:56.350Z,99.90
2019-04-16T01:07:27.059Z,99.90
2019-04-16T01:09:57.479Z,99.90
2019-04-16T01:12:28.451Z,99.90
2019-04-16T01:15:00.955Z,99.90
2019-04-16T01:17:33.463Z,99.90
2019-04-16T01:20:04.389Z,99.90
2019-04-16T01:22:34.829Z,99.90
2019-04-16T01:25:05.761Z,99.90
2019-04-16T01:27:39.863Z,99.90
2019-04-16T01:30:12.145Z,99.90
2019-04-16T01:32:58.870Z,99.90
2019-04-16T01:35:51.736Z,99.90
2019-04-16T01:38:29.028Z,99.90
2019-04-16T01:41:04.502Z,99.90
2019-04-16T01:43:34.933Z,99.90
2019-04-16T01:46:05.476Z,99.90
2019-04-16T01:48:38.600Z,99.90
2019-04-16T01:51:08.122Z,99.90
2019-04-16T01:53:38.814Z,99.90
2019-04-16T01:56:09.311Z,99.90
2019-04-16T01:58:39.754Z,99.90
2019-04-16T02:01:11.154Z,99.90
2019-04-16T02:03:42.418Z,99.90
2019-04-16T02:06:12.911Z,99.90
2019-04-16T02:08:43.597Z,99.90
2019-04-16T02:11:13.978Z,99.90
2019-04-16T02:13:46.269Z,99.90
2019-04-16T02:16:18.298Z,99.90
2019-04-16T02:18:50.229Z,99.90
2019-04-16T02:21:20.685Z,99.90
2019-04-16T02:23:51.103Z,99.90
2019-04-16T02:26:23.575Z,99.90
2019-04-16T02:28:56.472Z,99.90
2019-04-16T02:31:26.133Z,99.90
2019-04-16T02:33:56.542Z,99.90
2019-04-16T02:36:27.027Z,99.90
2019-04-16T02:38:57.501Z,99.90
2019-04-16T02:41:28.343Z,99.90
2019-04-16T02:43:58.826Z,99.90
2019-04-16T02:46:32.395Z,99.90
2019-04-16T02:49:02.229Z,99.90
2019-04-16T02:51:41.245Z,99.90
2019-04-16T02:54:19.543Z,99.90
2019-04-16T02:57:00.539Z,99.90
2019-04-16T02:59:34.882Z,99.90
2019-04-16T03:02:24.054Z,99.90
2019-04-16T03:05:09.454Z,99.90
2019-04-16T03:07:41.085Z,99.90
2019-04-16T03:10:13.293Z,99.90
2019-04-16T03:12:43.798Z,99.90
2019-04-16T03:15:18.505Z,99.90
2019-04-16T03:17:48.957Z,99.90
2019-04-16T03:20:20.897Z,99.90
2019-04-16T03:22:52.033Z,99.90
2019-04-16T03:25:22.594Z,99.90
2019-04-16T03:27:54.480Z,99.90
2019-04-16T03:30:25.136Z,99.90
2019-04-16T03:32:57.731Z,99.90
2019-04-16T03:35:28.122Z,99.90
2019-04-16T03:37:58.589Z,99.90
2019-04-16T03:40:29.018Z,99.90
2019-04-16T03:43:03.737Z,99.90
2019-04-16T03:45:31.574Z,99.90
2019-04-16T03:48:02.003Z,99.90
2019-04-16T03:50:32.423Z,99.90
2019-04-16T03:53:02.851Z,99.90
2019-04-16T03:55:33.259Z,99.90
2019-04-16T03:58:06.931Z,99.90
2019-04-16T04:00:43.764Z,99.90
2019-04-16T04:03:10.363Z,99.90
2019-04-16T04:05:40.833Z,99.90
2019-04-16T04:08:16.143Z,99.90
2019-04-16T04:10:43.559Z,99.90
2019-04-16T04:13:17.517Z,99.90
2019-04-16T04:15:46.121Z,99.90
2019-04-16T04:18:16.786Z,99.90
2019-04-16T04:20:50.027Z,99.90
2019-04-16T04:23:19.390Z,99.90
2019-04-16T04:25:49.962Z,99.90
2019-04-16T04:28:20.678Z,99.90
2019-04-16T04:30:51.276Z,99.90
2019-04-16T04:33:42.779Z,99.90
2019-04-16T04:36:12.509Z,99.90
2019-04-16T04:38:43.019Z,99.90
2019-04-16T04:41:13.841Z,99.90
2019-04-16T04:43:44.588Z,99.90
2019-04-16T04:46:15.725Z,99.90
2019-04-16T04:48:46.251Z,99.90
2019-04-16T04:51:16.687Z,99.90
2019-04-16T04:53:47.610Z,99.90
2019-04-16T04:56:20.041Z,99.90
2019-04-16T04:58:51.673Z,99.90
2019-04-16T05:01:22.077Z,99.90
2019-04-16T05:04:18.937Z,99.90
2019-04-16T05:06:46.353Z,99.90
2019-04-16T05:09:16.820Z,99.90
2019-04-16T05:11:48.369Z,99.90
2019-04-16T05:14:19.443Z,99.90
2019-04-16T05:16:49.888Z,99.90
2019-04-16T05:19:20.387Z,99.90
2019-04-16T05:21:50.931Z,99.90
2019-04-16T05:24:21.598Z,99.90
2019-04-16T05:26:52.076Z,99.90
2019-04-16T05:29:22.742Z,99.90
2019-04-16T05:31:56.949Z,99.90
2019-04-16T05:34:26.555Z,99.90
2019-04-16T05:36:57.034Z,99.90
2019-04-16T05:39:30.594Z,99.90
2019-04-16T05:42:01.057Z,99.90
2019-04-16T05:44:37.690Z,99.90
2019-04-16T05:47:16.845Z,99.90
2019-04-16T05:49:44.275Z,99.90
2019-04-16T05:52:14.669Z,99.90
2019-04-16T05:55:07.886Z,99.90
2019-04-16T05:57:40.241Z,99.90
2019-04-16T06:00:19.921Z,99.90
2019-04-16T06:02:50.823Z,99.90
2019-04-16T06:05:21.703Z,99.90
2019-04-16T06:07:55.153Z,99.90
2019-04-16T06:10:25.647Z,99.90
2019-04-16T06:13:21.454Z,99.90
2019-04-16T06:15:59.095Z,99.90
2019-04-16T06:18:44.024Z,99.90
2019-04-16T06:21:33.094Z,99.90
2019-04-16T06:24:14.359Z,99.90
2019-04-16T06:27:02.493Z,99.90
2019-04-16T06:30:02.335Z,99.90
2019-04-16T06:32:36.450Z,99.90
2019-04-16T06:35:44.436Z,99.90
2019-04-16T06:38:20.877Z,99.90
2019-04-16T06:41:10.462Z,99.90
2019-04-16T06:43:43.600Z,99.90
2019-04-16T06:46:39.451Z,99.90
2019-04-16T06:49:39.642Z,99.90
2019-04-16T06:52:27.884Z,99.90
2019-04-16T06:55:05.870Z,99.90
2019-04-16T06:57:44.596Z,99.90
2019-04-16T07:00:35.092Z,99.90
2019-04-16T07:03:27.234Z,99.90
2019-04-16T07:06:25.233Z,99.90
2019-04-16T07:09:05.804Z,99.90
2019-04-16T07:11:39.317Z,99.90
2019-04-16T07:14:11.477Z,99.90
2019-04-16T07:16:42.064Z,99.30
2019-04-16T07:19:12.765Z,97.20
2019-04-16T07:21:43.386Z,94.10
2019-04-16T07:24:13.918Z,87.70
2019-04-16T07:26:47.838Z,87.50
2019-04-16T07:29:41.998Z,89.60
2019-04-16T07:32:23.827Z,85.20
2019-04-16T07:35:13.550Z,82.70
2019-04-16T07:38:06.770Z,80.30
2019-04-16T07:40:51.934Z,72.70
2019-04-16T07:43:50.491Z,78.40
2019-04-16T07:46:44.238Z,79.50
2019-04-16T07:49:33.356Z,70.80
2019-04-16T07:52:16.737Z,72.40
2019-04-16T07:55:04.736Z,69.00
2019-04-16T07:57:35.381Z,70.20
2019-04-16T08:00:09.283Z,69.70
2019-04-16T08:02:39.687Z,64.50
2019-04-16T08:05:10.823Z,62.80
2019-04-16T08:07:42.470Z,58.60
2019-04-16T08:10:16.775Z,59.90
2019-04-16T08:13:00.577Z,58.10
2019-04-16T08:15:29.870Z,58.70
2019-04-16T08:18:00.310Z,54.80
2019-04-16T08:20:30.975Z,53.60
2019-04-16T08:23:04.291Z,53.10
2019-04-16T08:25:34.972Z,51.10
2019-04-16T08:28:07.470Z,50.30
2019-04-16T08:30:39.430Z,52.60
2019-04-16T08:33:11.114Z,49.60
2019-04-16T08:35:41.673Z,49.30
2019-04-16T08:38:12.099Z,47.80
2019-04-16T08:40:46.036Z,50.30
2019-04-16T08:43:15.117Z,46.90
2019-04-16T08:45:45.638Z,49.10
2019-04-16T08:48:18.645Z,49.00
2019-04-16T08:50:49.496Z,47.00
2019-04-16T08:53:20.003Z,46.50
2019-04-16T08:55:50.412Z,46.70
2019-04-16T08:58:21.083Z,47.00
2019-04-16T09:00:51.558Z,46.00
2019-04-16T09:03:22.172Z,45.40
2019-04-16T09:05:52.597Z,43.60
2019-04-16T09:08:28.507Z,44.20
2019-04-16T09:11:00.426Z,50.30
2019-04-16T09:13:35.106Z,47.90
2019-04-16T09:16:06.302Z,46.80
2019-04-16T09:18:53.263Z,44.20
2019-04-16T09:21:23.629Z,43.60
2019-04-16T09:24:11.776Z,42.50
2019-04-16T09:26:47.593Z,41.10
2019-04-16T09:29:29.686Z,36.80
2019-04-16T09:32:09.111Z,35.30
2019-04-16T09:35:08.011Z,32.40
2019-04-16T09:37:52.228Z,31.90
2019-04-16T09:40:40.506Z,30.60
2019-04-16T09:43:17.629Z,33.20
2019-04-16T09:45:45.358Z,30.20
2019-04-16T09:48:15.990Z,28.30
2019-04-16T09:50:47.876Z,29.70
2019-04-16T09:53:32.196Z,30.30
2019-04-16T09:55:51.305Z,28.80
2019-04-16T09:58:23.745Z,29.20
2019-04-16T10:01:06.852Z,28.90
2019-04-16T10:03:39.930Z,30.70
2019-04-16T10:06:10.419Z,28.80
2019-04-16T10:08:44.344Z,31.20
2019-04-16T10:11:13.491Z,30.30
2019-04-16T10:13:43.865Z,28.70
2019-04-16T10:16:14.821Z,28.40
2019-04-16T10:18:45.338Z,31.70
2019-04-16T10:21:18.790Z,28.40
2019-04-16T10:23:55.857Z,28.60
2019-04-16T10:26:26.353Z,27.20
2019-04-16T10:28:57.517Z,26.60
2019-04-16T10:31:28.159Z,26.20
2019-04-16T10:33:59.688Z,26.50
2019-04-16T10:36:30.292Z,25.80
2019-04-16T10:39:16.046Z,26.40
2019-04-16T10:42:01.245Z,26.70
2019-04-16T10:44:38.507Z,27.50
2019-04-16T10:47:21.408Z,28.00
2019-04-16T10:49:58.759Z,27.90
2019-04-16T10:52:46.721Z,27.90
2019-04-16T10:55:22.866Z,29.00
2019-04-16T10:58:11.069Z,26.50
2019-04-16T11:01:00.597Z,28.00
2019-04-16T11:03:51.586Z,27.30
2019-04-16T11:06:35.892Z,27.80
2019-04-16T11:09:07.513Z,27.10
2019-04-16T11:11:37.975Z,26.40
2019-04-16T11:14:08.779Z,25.80
2019-04-16T11:16:40.907Z,24.30
2019-04-16T11:19:11.842Z,24.50
2019-04-16T11:21:42.559Z,24.90
2019-04-16T11:24:13.351Z,24.80
2019-04-16T11:26:44.507Z,24.30
2019-04-16T11:29:15.081Z,25.20
2019-04-16T11:31:45.654Z,25.40
2019-04-16T11:34:17.302Z,24.80
2019-04-16T11:36:47.838Z,25.50
2019-04-16T11:39:18.359Z,24.40
2019-04-16T11:41:49.109Z,25.90
2019-04-16T11:44:19.662Z,25.70
2019-04-16T11:46:50.124Z,26.00
2019-04-16T11:49:21.719Z,25.80
2019-04-16T11:51:52.464Z,25.10
2019-04-16T11:54:22.924Z,26.60
2019-04-16T11:56:55.552Z,28.30
2019-04-16T11:59:25.633Z,26.60
2019-04-16T12:02:04.660Z,27.30
2019-04-16T12:05:00.398Z,28.90
2019-04-16T12:07:54.305Z,28.00
2019-04-16T12:10:42.394Z,29.90
2019-04-16T12:13:30.441Z,31.30
2019-04-16T12:16:11.913Z,31.20
2019-04-16T12:19:00.160Z,30.50
2019-04-16T12:21:47.491Z,31.00
2019-04-16T12:24:34.685Z,30.80
2019-04-16T12:27:17.233Z,29.90
2019-04-16T12:30:05.506Z,29.40
2019-04-16T12:32:59.253Z,31.40
2019-04-16T12:35:49.704Z,30.70
2019-04-16T12:38:25.223Z,29.70
2019-04-16T12:41:14.871Z,31.60
2019-04-16T12:43:51.668Z,31.40
2019-04-16T12:46:44.543Z,30.60
2019-04-16T12:49:32.545Z,30.50
2019-04-16T12:52:15.881Z,31.60
2019-04-16T12:54:59.313Z,31.90
2019-04-16T12:57:37.254Z,30.90
2019-04-16T13:00:16.186Z,31.50
2019-04-16T13:03:04.253Z,31.20
2019-04-16T13:05:53.967Z,30.70
2019-04-16T13:08:35.793Z,29.40
2019-04-16T13:11:14.588Z,31.00
2019-04-16T13:14:02.931Z,31.70
2019-04-16T13:16:42.864Z,30.90
2019-04-16T13:19:31.282Z,30.00
2019-04-16T13:22:02.204Z,30.50
2019-04-16T13:24:51.743Z,31.00
2019-04-16T13:27:24.878Z,31.80
2019-04-16T13:29:55.574Z,32.20
2019-04-16T13:32:27.833Z,32.60
2019-04-16T13:34:58.842Z,32.50
2019-04-16T13:37:36.303Z,33.50
2019-04-16T13:40:08.867Z,32.70
2019-04-16T13:42:39.510Z,32.80
2019-04-16T13:45:25.622Z,33.00
2019-04-16T13:47:55.646Z,31.80
2019-04-16T13:50:35.851Z,32.00
2019-04-16T13:53:17.070Z,32.30
2019-04-16T13:56:04.974Z,32.70
2019-04-16T13:58:40.541Z,31.80
2019-04-16T14:01:17.669Z,31.10
2019-04-16T14:03:48.053Z,33.30
2019-04-16T14:06:18.455Z,31.20
2019-04-16T14:08:48.863Z,31.20
2019-04-16T14:11:20.514Z,32.40
2019-04-16T14:13:51.105Z,32.20
2019-04-16T14:16:21.582Z,31.60
2019-04-16T14:18:52.061Z,31.10
2019-04-16T14:21:22.423Z,32.70
2019-04-16T14:23:52.782Z,33.10
2019-04-16T14:26:23.450Z,31.40
2019-04-16T14:28:56.799Z,31.00
2019-04-16T14:31:26.929Z,32.00
2019-04-16T14:34:19.585Z,31.60
2019-04-16T14:36:53.122Z,31.60
2019-04-16T14:39:29.906Z,31.20
2019-04-16T14:42:00.314Z,32.40
2019-04-16T14:44:35.300Z,32.80
2019-04-16T14:47:05.730Z,33.40
2019-04-16T14:49:36.547Z,34.20
2019-04-16T14:52:07.115Z,33.50
2019-04-16T14:54:42.449Z,33.10
2019-04-16T14:57:13.310Z,33.00
2019-04-16T15:00:06.119Z,34.00
2019-04-16T15:02:44.462Z,34.50
2019-04-16T15:05:24.645Z,31.70
2019-04-16T15:08:14.183Z,31.20
2019-04-16T15:11:15.531Z,33.80
2019-04-16T15:13:55.791Z,33.90
2019-04-16T15:16:36.094Z,32.90
2019-04-16T15:19:24.025Z,33.40
2019-04-16T15:22:28.745Z,34.20
2019-04-16T15:25:20.809Z,34.60
2019-04-16T15:28:06.237Z,35.40
2019-04-16T15:30:48.802Z,34.90
2019-04-16T15:33:44.395Z,35.50
2019-04-16T15:36:20.914Z,35.20
2019-04-16T15:38:59.079Z,35.40
2019-04-16T15:41:44.545Z,35.00
2019-04-16T15:44:22.599Z,36.00
2019-04-16T15:47:02.313Z,35.40
2019-04-16T15:49:40.939Z,34.90
2019-04-16T15:52:27.953Z,35.10
2019-04-16T15:55:16.330Z,36.00
2019-04-16T15:58:18.967Z,36.00
2019-04-16T16:00:55.003Z,36.60
2019-04-16T16:03:43.266Z,35.20
2019-04-16T16:06:16.929Z,35.40
2019-04-16T16:09:19.016Z,35.30
2019-04-16T16:11:59.937Z,35.80
2019-04-16T16:14:34.635Z,35.60
2019-04-16T16:17:02.463Z,35.80
2019-04-16T16:19:32.830Z,36.50
2019-04-16T16:22:03.233Z,36.60
2019-04-16T16:24:35.901Z,36.20
2019-04-16T16:27:05.730Z,36.70
2019-04-16T16:29:36.146Z,36.50
2019-04-16T16:32:06.586Z,38.10
2019-04-16T16:34:36.986Z,37.10
2019-04-16T16:37:07.521Z,37.00
2019-04-16T16:39:38.170Z,36.40
2019-04-16T16:42:09.550Z,36.00
2019-04-16T16:44:40.238Z,36.50
2019-04-16T16:47:21.092Z,36.40
2019-04-16T16:49:51.533Z,36.80
2019-04-16T16:52:39.818Z,36.80
2019-04-16T16:55:16.659Z,37.20
2019-04-16T16:57:57.733Z,37.50
2019-04-16T17:00:35.898Z,37.70
2019-04-16T17:03:22.338Z,38.10
2019-04-16T17:05:52.878Z,38.50
2019-04-16T17:08:27.108Z,39.10
2019-04-16T17:11:16.032Z,39.80
2019-04-16T17:13:38.851Z,39.70
2019-04-16T17:16:13.505Z,40.50
2019-04-16T17:18:45.442Z,41.20
2019-04-16T17:21:15.697Z,40.90
2019-04-16T17:23:46.325Z,41.30
2019-04-16T17:26:17.084Z,41.60
2019-04-16T17:29:00.865Z,41.60
2019-04-16T17:31:35.591Z,42.20
2019-04-16T17:34:04.827Z,42.20
2019-04-16T17:36:35.611Z,42.90
2019-04-16T17:39:10.504Z,42.80
2019-04-16T17:41:48.380Z,43.00
2019-04-16T17:45:05.094Z,43.60
2019-04-16T17:48:10.008Z,43.30
2019-04-16T17:51:00.569Z,43.80
2019-04-16T17:53:41.434Z,44.30
2019-04-16T17:56:29.399Z,45.50
2019-04-16T17:59:02.763Z,45.90
2019-04-16T18:01:51.027Z,45.50
2019-04-16T18:04:28.666Z,45.80
2019-04-16T18:07:24.902Z,45.20
2019-04-16T18:10:14.761Z,46.00
2019-04-16T18:13:06.529Z,45.80
2019-04-16T18:15:55.981Z,46.60
2019-04-16T18:18:58.343Z,46.60
2019-04-16T18:21:41.888Z,47.10
2019-04-16T18:24:39.991Z,47.30
2019-04-16T18:27:29.218Z,47.10
2019-04-16T18:30:39.238Z,48.50
2019-04-16T18:33:30.862Z,49.00
2019-04-16T18:36:34.967Z,49.30
2019-04-16T18:39:37.195Z,50.10
2019-04-16T18:42:30.518Z,51.20
2019-04-16T18:45:19.937Z,51.50
2019-04-16T18:48:13.105Z,52.20
2019-04-16T18:50:40.455Z,52.80
2019-04-16T18:53:15.493Z,52.70
2019-04-16T18:55:49.361Z,53.50
2019-04-16T18:58:20.385Z,54.40
2019-04-16T19:00:54.003Z,54.50
2019-04-16T19:03:25.242Z,54.60
2019-04-16T19:06:02.394Z,54.60
2019-04-16T19:08:41.577Z,55.20
2019-04-16T19:11:10.696Z,55.40
2019-04-16T19:13:41.712Z,56.00
2019-04-16T19:16:13.327Z,56.00
2019-04-16T19:18:44.119Z,56.80
2019-04-16T19:21:15.043Z,57.10
2019-04-16T19:23:56.344Z,57.10
2019-04-16T19:26:30.095Z,56.90
2019-04-16T19:29:09.759Z,57.60
2019-04-16T19:31:40.122Z,56.50
2019-04-16T19:34:11.067Z,57.10
2019-04-16T19:36:42.459Z,57.10
2019-04-16T19:39:15.330Z,56.50
2019-04-16T19:41:47.978Z,58.20
2019-04-16T19:44:18.779Z,58.00
2019-04-16T19:46:52.658Z,58.30
2019-04-16T19:49:27.947Z,58.10
2019-04-16T19:52:04.167Z,58.00
2019-04-16T19:54:35.351Z,58.50
2019-04-16T19:57:06.850Z,59.00
2019-04-16T19:59:38.064Z,59.20
2019-04-16T20:02:11.276Z,59.40
2019-04-16T20:04:44.521Z,59.80
2019-04-16T20:07:18.246Z,60.80
2019-04-16T20:09:49.540Z,61.70
2019-04-16T20:12:20.047Z,62.10
2019-04-16T20:14:50.533Z,62.40
2019-04-16T20:17:20.967Z,63.00
2019-04-16T20:20:01.502Z,63.60
2019-04-16T20:22:32.114Z,64.20
2019-04-16T20:25:02.725Z,64.70
2019-04-16T20:27:36.283Z,65.20
2019-04-16T20:30:08.421Z,65.70
2019-04-16T20:32:42.195Z,66.00
2019-04-16T20:35:11.586Z,66.30
2019-04-16T20:37:42.118Z,67.70
2019-04-16T20:40:14.612Z,68.50
2019-04-16T20:42:44.570Z,69.30
2019-04-16T20:45:15.131Z,69.80
2019-04-16T20:47:45.550Z,70.60
2019-04-16T20:50:20.559Z,72.10
2019-04-16T20:52:48.902Z,73.50
2019-04-16T20:55:19.648Z,74.20
2019-04-16T20:57:50.092Z,74.60
2019-04-16T21:00:27.314Z,75.70
2019-04-16T21:02:58.079Z,76.60
2019-04-16T21:05:28.528Z,75.90
2019-04-16T21:07:59.186Z,78.80
2019-04-16T21:10:29.763Z,78.10
2019-04-16T21:13:00.186Z,77.90
2019-04-16T21:15:30.740Z,78.10
2019-04-16T21:18:01.557Z,77.00
2019-04-16T21:20:33.150Z,76.80
2019-04-16T21:23:04.090Z,75.20
2019-04-16T21:25:35.683Z,74.00
2019-04-16T21:28:20.477Z,72.90
2019-04-16T21:30:54.672Z,73.50
2019-04-16T21:33:30.569Z,70.90
2019-04-16T21:36:04.754Z,69.30
2019-04-16T21:38:51.879Z,67.70
2019-04-16T21:41:22.306Z,68.50
2019-04-16T21:43:52.731Z,66.70
2019-04-16T21:46:23.201Z,64.70
2019-04-16T21:48:55.979Z,64.60
2019-04-16T21:51:26.031Z,63.20
2019-04-16T21:53:58.086Z,61.50
2019-04-16T21:56:29.128Z,61.60
2019-04-16T21:58:59.535Z,60.30
2019-04-16T22:01:42.981Z,61.10
2019-04-16T22:04:15.753Z,61.40
2019-04-16T22:06:49.037Z,60.90
2019-04-16T22:09:18.455Z,60.60
2019-04-16T22:11:49.188Z,61.60
2019-04-16T22:14:22.218Z,60.50
2019-04-16T22:16:51.898Z,60.70
2019-04-16T22:19:22.358Z,60.90
2019-04-16T22:21:52.840Z,61.00
2019-04-16T22:24:23.838Z,59.90
2019-04-16T22:26:54.561Z,59.80
2019-04-16T22:29:25.037Z,59.50
2019-04-16T22:31:57.127Z,60.40
2019-04-16T22:34:27.737Z,60.40
2019-04-16T22:36:58.191Z,60.10
2019-04-16T22:39:41.770Z,60.00
2019-04-16T22:42:29.598Z,60.10
2019-04-16T22:45:19.872Z,60.00
2019-04-16T22:47:50.307Z,60.40
2019-04-16T22:50:20.775Z,61.50
2019-04-16T22:52:51.187Z,62.10
2019-04-16T22:55:24.435Z,61.60
2019-04-16T22:57:53.742Z,61.90
2019-04-16T23:00:30.769Z,62.40
2019-04-16T23:03:01.511Z,62.00
2019-04-16T23:05:32.095Z,61.80
2019-04-16T23:08:02.820Z,62.50
2019-04-16T23:10:33.353Z,63.00
2019-04-16T23:13:03.785Z,62.90
2019-04-16T23:15:34.230Z,63.50
2019-04-16T23:18:06.367Z,62.90
2019-04-16T23:20:37.179Z,63.40
2019-04-16T23:23:07.666Z,62.90
2019-04-16T23:25:38.459Z,63.40
2019-04-16T23:28:10.649Z,63.20
2019-04-16T23:30:43.816Z,62.60
2019-04-16T23:33:14.596Z,63.30
2019-04-16T23:35:45.052Z,63.80
2019-04-16T23:38:15.682Z,65.30
2019-04-16T23:40:46.478Z,64.60
2019-04-16T23:43:29.656Z,65.20
2019-04-16T23:46:28.240Z,66.20
2019-04-16T23:49:08.975Z,65.10
2019-04-16T23:51:48.394Z,64.50
2019-04-16T23:54:24.198Z,63.80
2019-04-16T23:57:21.629Z,63.50
